createdAt,value
2018-09-19T00:00:41.059Z,13.50
2018-09-19T00:03:14.185Z,16.17
2018-09-19T00:05:47.139Z,12.27
2018-09-19T00:08:20.214Z,13.97
2018-09-19T00:10:53.235Z,14.93
2018-09-19T00:13:26.402Z,9.90
2018-09-19T00:15:59.260Z,13.90
2018-09-19T00:18:32.390Z,14.03
2018-09-19T00:21:05.348Z,15.27
2018-09-19T00:23:38.555Z,14.73
2018-09-19T00:26:11.636Z,12.20
2018-09-19T00:28:44.733Z,12.73
2018-09-19T00:31:17.866Z,12.50
2018-09-19T00:33:50.934Z,16.33
2018-09-19T00:36:24.455Z,16.97
2018-09-19T00:38:57.523Z,12.30
2018-09-19T00:41:30.535Z,11.87
2018-09-19T00:44:03.761Z,17.20
2018-09-19T00:46:36.680Z,11.57
2018-09-19T00:49:09.933Z,13.83
2018-09-19T00:51:42.983Z,16.03
2018-09-19T00:54:16.101Z,15.03
2018-09-19T00:56:49.099Z,14.63
2018-09-19T00:59:22.172Z,13.17
2018-09-19T01:01:55.181Z,12.60
2018-09-19T01:04:28.267Z,13.43
2018-09-19T01:07:01.357Z,13.70
2018-09-19T01:09:34.320Z,10.53
2018-09-19T01:12:07.375Z,11.67
2018-09-19T01:14:40.359Z,10.37
2018-09-19T01:17:13.446Z,10.47
2018-09-19T01:19:46.483Z,12.93
2018-09-19T01:22:19.519Z,10.67
2018-09-19T01:24:52.702Z,12.70
2018-09-19T01:27:25.609Z,10.97
2018-09-19T01:29:58.711Z,12.03
2018-09-19T01:32:31.815Z,11.77
2018-09-19T01:35:04.967Z,11.80
2018-09-19T01:37:37.948Z,10.93
2018-09-19T01:40:11.106Z,10.93
2018-09-19T01:42:44.199Z,14.70
2018-09-19T01:45:17.373Z,15.63
2018-09-19T01:47:50.374Z,12.97
2018-09-19T01:50:23.457Z,13.00
2018-09-19T01:52:56.421Z,12.93
2018-09-19T01:55:29.653Z,15.97
2018-09-19T01:58:02.702Z,13.67
2018-09-19T02:00:35.860Z,18.07
2018-09-19T02:03:08.882Z,13.07
2018-09-19T02:05:41.956Z,13.33
2018-09-19T02:08:15.017Z,16.63
2018-09-19T02:10:48.093Z,15.80
2018-09-19T02:13:21.174Z,13.50
2018-09-19T02:15:54.394Z,18.23
2018-09-19T02:18:27.525Z,16.63
2018-09-19T02:21:00.517Z,14.20
2018-09-19T02:23:33.521Z,18.13
2018-09-19T02:26:06.583Z,15.90
2018-09-19T02:28:39.812Z,16.07
2018-09-19T02:31:13.032Z,14.30
2018-09-19T02:33:46.062Z,14.33
2018-09-19T02:36:23.947Z,16.27
2018-09-19T02:38:59.417Z,21.43
2018-09-19T02:41:32.582Z,23.23
2018-09-19T02:44:05.494Z,12.87
2018-09-19T02:46:38.632Z,19.47
2018-09-19T02:49:11.733Z,12.60
2018-09-19T02:51:44.810Z,15.30
2018-09-19T02:54:17.729Z,19.30
2018-09-19T02:56:50.903Z,17.33
2018-09-19T02:59:23.907Z,15.40
2018-09-19T03:01:57.045Z,14.23
2018-09-19T03:04:30.018Z,18.23
2018-09-19T03:07:03.142Z,18.40
2018-09-19T03:09:36.152Z,16.53
2018-09-19T03:12:09.224Z,15.33
2018-09-19T03:14:42.229Z,17.90
2018-09-19T03:17:15.639Z,11.90
2018-09-19T03:19:48.565Z,16.53
2018-09-19T03:22:21.649Z,12.80
2018-09-19T03:24:54.602Z,14.37
2018-09-19T03:27:27.776Z,10.73
2018-09-19T03:30:00.813Z,12.40
2018-09-19T03:32:33.853Z,13.97
2018-09-19T03:35:06.945Z,14.97
2018-09-19T03:37:40.090Z,11.23
2018-09-19T03:40:13.191Z,15.07
2018-09-19T03:42:46.298Z,15.00
2018-09-19T03:45:19.444Z,14.93
2018-09-19T03:47:52.507Z,10.30
2018-09-19T03:50:25.515Z,11.03
2018-09-19T03:52:58.664Z,13.63
2018-09-19T03:55:31.774Z,16.40
2018-09-19T03:58:04.931Z,15.47
2018-09-19T04:00:38.082Z,13.43
2018-09-19T04:03:11.129Z,13.73
2018-09-19T04:05:44.060Z,14.60
2018-09-19T04:08:17.075Z,15.13
2018-09-19T04:10:50.175Z,11.43
2018-09-19T04:13:23.206Z,12.97
2018-09-19T04:15:56.339Z,12.77
2018-09-19T04:18:29.525Z,17.33
2018-09-19T04:21:02.518Z,16.07
2018-09-19T04:23:35.649Z,15.83
2018-09-19T04:26:08.879Z,16.50
2018-09-19T04:28:42.197Z,13.57
2018-09-19T04:31:13.912Z,13.67
2018-09-19T04:33:45.752Z,13.97
2018-09-19T04:36:19.821Z,14.80
2018-09-19T04:38:54.943Z,18.90
2018-09-19T04:41:29.998Z,18.07
2018-09-19T04:44:08.777Z,18.13
2018-09-19T04:46:45.408Z,18.10
2018-09-19T04:49:26.305Z,18.07
2018-09-19T04:51:58.266Z,18.70
2018-09-19T04:54:30.032Z,13.30
2018-09-19T04:57:01.776Z,16.57
2018-09-19T04:59:33.535Z,21.53
2018-09-19T05:02:05.204Z,17.30
2018-09-19T05:04:38.222Z,16.93
2018-09-19T05:07:09.928Z,19.00
2018-09-19T05:09:41.788Z,16.43
2018-09-19T05:12:13.455Z,18.13
2018-09-19T05:14:45.255Z,19.63
2018-09-19T05:17:17.093Z,13.37
2018-09-19T05:19:48.834Z,15.40
2018-09-19T05:22:21.544Z,15.87
2018-09-19T05:24:53.384Z,12.93
2018-09-19T05:27:25.077Z,15.80
2018-09-19T05:29:56.825Z,15.07
2018-09-19T05:32:28.533Z,13.63
2018-09-19T05:35:00.177Z,13.00
2018-09-19T05:37:32.018Z,16.97
2018-09-19T05:40:03.658Z,16.20
2018-09-19T05:42:35.364Z,19.17
2018-09-19T05:45:07.381Z,19.33
2018-09-19T05:47:39.075Z,18.53
2018-09-19T05:50:10.982Z,21.23
2018-09-19T05:52:42.592Z,24.30
2018-09-19T05:55:14.338Z,19.80
2018-09-19T05:57:46.028Z,20.73
2018-09-19T06:00:17.839Z,21.73
2018-09-19T06:02:49.562Z,25.57
2018-09-19T06:05:21.269Z,26.27
2018-09-19T06:07:52.922Z,23.83
2018-09-19T06:10:24.610Z,21.03
2018-09-19T06:12:56.359Z,23.00
2018-09-19T06:15:29.379Z,20.27
2018-09-19T06:18:01.093Z,24.63
2018-09-19T06:20:32.799Z,18.30
2018-09-19T06:23:04.457Z,20.13
2018-09-19T06:25:36.221Z,19.00
2018-09-19T06:28:07.915Z,20.43
2018-09-19T06:30:39.667Z,23.83
2018-09-19T06:33:11.384Z,24.10
2018-09-19T06:35:43.039Z,24.50
2018-09-19T06:38:14.690Z,25.13
2018-09-19T06:40:46.576Z,21.60
2018-09-19T06:43:18.129Z,24.17
2018-09-19T06:45:50.813Z,23.87
2018-09-19T06:48:22.485Z,19.93
2018-09-19T06:50:54.195Z,20.83
2018-09-19T06:53:25.885Z,21.03
2018-09-19T06:55:57.645Z,16.17
2018-09-19T06:58:29.529Z,17.07
2018-09-19T07:01:01.285Z,17.30
2018-09-19T07:03:34.845Z,23.97
2018-09-19T07:06:06.659Z,15.10
2018-09-19T07:08:40.201Z,14.53
2018-09-19T07:11:12.269Z,16.57
2018-09-19T07:13:44.051Z,17.77
2018-09-19T07:16:15.987Z,16.13
2018-09-19T07:18:47.812Z,15.17
2018-09-19T07:21:24.517Z,22.00
2018-09-19T07:23:56.275Z,12.77
2018-09-19T07:26:28.273Z,13.20
2018-09-19T07:29:00.180Z,13.77
2018-09-19T07:31:32.263Z,15.07
2018-09-19T07:34:04.055Z,12.13
2018-09-19T07:36:36.081Z,14.43
2018-09-19T07:39:25.213Z,10.07
2018-09-19T07:41:56.902Z,12.57
2018-09-19T07:44:28.658Z,12.63
2018-09-19T07:47:00.419Z,11.40
2018-09-19T07:49:32.101Z,13.03
2018-09-19T07:52:03.764Z,11.90
2018-09-19T07:54:35.577Z,11.00
2018-09-19T07:57:07.303Z,12.07
2018-09-19T07:59:38.927Z,10.43
2018-09-19T08:02:10.668Z,11.77
2018-09-19T08:04:42.374Z,9.80
2018-09-19T08:07:14.316Z,9.00
2018-09-19T08:09:46.087Z,8.60
2018-09-19T08:12:17.825Z,11.93
2018-09-19T08:14:49.579Z,6.50
2018-09-19T08:17:21.589Z,8.50
2018-09-19T08:19:53.441Z,4.77
2018-09-19T08:22:24.820Z,7.33
2018-09-19T08:24:56.091Z,8.27
2018-09-19T08:27:27.791Z,5.47
2018-09-19T08:30:01.349Z,7.23
2018-09-19T08:32:32.654Z,8.57
2018-09-19T08:35:03.942Z,8.80
2018-09-19T08:37:35.479Z,5.10
2018-09-19T08:40:06.913Z,7.90
2018-09-19T08:42:38.285Z,5.93
2018-09-19T08:45:09.579Z,6.97
2018-09-19T08:47:40.973Z,7.20
2018-09-19T08:50:14.227Z,5.60
2018-09-19T08:52:52.747Z,9.80
2018-09-19T08:55:33.044Z,6.77
2018-09-19T08:58:11.531Z,13.27
2018-09-19T09:00:52.305Z,7.77
2018-09-19T09:03:37.283Z,6.37
2018-09-19T09:06:20.390Z,7.03
2018-09-19T09:09:01.682Z,6.67
2018-09-19T09:11:42.374Z,6.00
2018-09-19T09:14:21.075Z,15.80
2018-09-19T09:17:05.419Z,8.60
2018-09-19T09:19:47.481Z,5.07
2018-09-19T09:22:25.376Z,6.17
2018-09-19T09:25:04.459Z,4.70
2018-09-19T09:27:39.964Z,8.37
2018-09-19T09:30:20.476Z,5.27
2018-09-19T09:32:59.733Z,7.37
2018-09-19T09:35:36.944Z,8.60
2018-09-19T09:38:14.014Z,5.70
2018-09-19T09:40:55.608Z,3.57
2018-09-19T09:43:34.540Z,6.13
2018-09-19T09:46:06.414Z,6.57
2018-09-19T09:48:38.395Z,3.47
2018-09-19T09:51:10.305Z,3.60
2018-09-19T09:53:43.372Z,4.53
2018-09-19T09:56:15.198Z,4.87
2018-09-19T09:58:46.488Z,6.33
2018-09-19T10:01:21.503Z,4.57
2018-09-19T10:03:54.190Z,6.53
2018-09-19T10:06:25.937Z,3.90
2018-09-19T10:08:57.920Z,4.90
2018-09-19T10:11:29.743Z,3.83
2018-09-19T10:14:01.311Z,4.50
2018-09-19T10:16:33.275Z,3.60
2018-09-19T10:19:04.629Z,4.73
2018-09-19T10:21:38.925Z,3.77
2018-09-19T10:24:10.619Z,3.97
2018-09-19T10:26:42.026Z,3.97
2018-09-19T10:29:13.659Z,4.77
2018-09-19T10:31:45.189Z,3.50
2018-09-19T10:34:16.758Z,3.30
2018-09-19T10:36:48.239Z,6.73
2018-09-19T10:39:20.026Z,3.00
2018-09-19T10:41:51.406Z,4.97
2018-09-19T10:44:22.775Z,4.63
2018-09-19T10:46:54.477Z,2.03
2018-09-19T10:49:25.762Z,3.60
2018-09-19T10:51:57.022Z,4.63
2018-09-19T10:54:28.300Z,4.03
2018-09-19T10:56:59.656Z,2.80
2018-09-19T10:59:30.882Z,5.53
2018-09-19T11:02:02.118Z,4.87
2018-09-19T11:04:33.687Z,4.23
2018-09-19T11:07:04.990Z,7.80
2018-09-19T11:09:36.288Z,6.57
2018-09-19T11:12:07.674Z,3.57
2018-09-19T11:14:38.973Z,4.77
2018-09-19T11:17:10.424Z,4.20
2018-09-19T11:19:41.922Z,4.80
2018-09-19T11:22:13.177Z,5.00
2018-09-19T11:24:44.502Z,4.50
2018-09-19T11:27:15.784Z,4.67
2018-09-19T11:29:47.049Z,4.77
2018-09-19T11:32:18.355Z,4.27
2018-09-19T11:34:49.625Z,4.27
2018-09-19T11:37:20.945Z,5.67
2018-09-19T11:39:52.237Z,5.90
2018-09-19T11:42:23.600Z,5.73
2018-09-19T11:44:54.884Z,6.83
2018-09-19T11:47:26.217Z,6.00
2018-09-19T11:49:57.483Z,3.50
2018-09-19T11:52:28.872Z,4.13
2018-09-19T11:55:00.121Z,4.67
2018-09-19T11:57:31.411Z,3.50
2018-09-19T12:00:02.697Z,2.93
2018-09-19T12:02:34.024Z,4.73
2018-09-19T12:05:05.378Z,3.97
2018-09-19T12:07:36.748Z,4.90
2018-09-19T12:10:08.136Z,4.37
2018-09-19T12:12:39.508Z,5.77
2018-09-19T12:15:10.828Z,2.63
2018-09-19T12:17:42.206Z,3.93
2018-09-19T12:20:13.564Z,5.10
2018-09-19T12:22:44.885Z,5.23
2018-09-19T12:25:16.200Z,3.73
2018-09-19T12:27:47.510Z,4.93
2018-09-19T12:30:18.783Z,3.70
2018-09-19T12:32:50.071Z,3.97
2018-09-19T12:35:21.378Z,5.40
2018-09-19T12:37:52.691Z,5.23
2018-09-19T12:40:23.960Z,7.17
2018-09-19T12:42:55.239Z,5.10
2018-09-19T12:45:26.541Z,3.73
2018-09-19T12:47:57.801Z,4.83
2018-09-19T12:50:29.242Z,3.97
2018-09-19T12:53:00.518Z,5.73
2018-09-19T12:55:31.768Z,6.60
2018-09-19T12:58:03.112Z,10.57
2018-09-19T13:00:34.427Z,5.40
2018-09-19T13:03:05.805Z,6.23
2018-09-19T13:05:37.114Z,5.47
2018-09-19T13:08:08.699Z,6.43
2018-09-19T13:10:39.975Z,7.00
2018-09-19T13:13:11.231Z,7.87
2018-09-19T13:15:42.468Z,5.40
2018-09-19T13:18:13.772Z,3.50
2018-09-19T13:20:45.051Z,4.93
2018-09-19T13:23:16.318Z,4.80
2018-09-19T13:25:47.677Z,6.67
2018-09-19T13:28:18.989Z,9.00
2018-09-19T13:30:50.470Z,5.17
2018-09-19T13:33:21.774Z,3.60
2018-09-19T13:35:53.082Z,6.50
2018-09-19T13:38:24.391Z,3.50
2018-09-19T13:40:55.686Z,5.10
2018-09-19T13:43:27.093Z,6.05
2018-09-19T13:45:58.446Z,7.78
2018-09-19T13:48:29.961Z,7.87
2018-09-19T13:51:15.610Z,5.80
2018-09-19T13:53:46.895Z,4.95
2018-09-19T13:56:19.304Z,3.95
2018-09-19T13:58:50.769Z,7.80
2018-09-19T14:01:22.068Z,7.03
2018-09-19T14:03:53.429Z,6.83
2018-09-19T14:06:24.706Z,5.22
2018-09-19T14:08:56.028Z,4.90
2018-09-19T14:11:27.310Z,4.62
2018-09-19T14:13:58.643Z,6.60
2018-09-19T14:16:29.910Z,7.47
2018-09-19T14:19:01.285Z,6.28
2018-09-19T14:21:32.624Z,5.47
2018-09-19T14:24:04.001Z,5.08
2018-09-19T14:26:35.339Z,4.92
2018-09-19T14:29:06.901Z,4.30
2018-09-19T14:31:38.453Z,5.47
2018-09-19T14:34:09.760Z,6.70
2018-09-19T14:36:41.048Z,4.60
2018-09-19T14:39:15.606Z,3.95
2018-09-19T14:41:46.850Z,5.67
2018-09-19T14:44:18.169Z,7.97
2018-09-19T14:46:49.467Z,5.80
2018-09-19T14:49:20.730Z,6.15
2018-09-19T14:51:52.148Z,5.33
2018-09-19T14:54:23.509Z,7.40
2018-09-19T14:56:56.318Z,6.37
2018-09-19T14:59:27.658Z,6.55
2018-09-19T15:01:58.914Z,7.85
2018-09-19T15:04:30.213Z,5.42
2018-09-19T15:07:01.513Z,6.00
2018-09-19T15:09:32.792Z,6.47
2018-09-19T15:12:04.058Z,7.33
2018-09-19T15:14:35.371Z,4.30
2018-09-19T15:17:06.742Z,5.55
2018-09-19T15:19:38.098Z,8.15
2018-09-19T15:22:09.793Z,5.47
2018-09-19T15:24:41.142Z,9.05
2018-09-19T15:27:12.582Z,7.28
2018-09-19T15:29:43.881Z,5.97
2018-09-19T15:32:15.241Z,12.40
2018-09-19T15:34:46.575Z,7.45
2018-09-19T15:37:18.131Z,5.25
2018-09-19T15:39:49.499Z,6.25
2018-09-19T15:42:20.778Z,4.60
2018-09-19T15:44:52.153Z,4.55
2018-09-19T15:47:23.479Z,6.42
2018-09-19T15:49:54.806Z,5.72
2018-09-19T15:52:26.110Z,5.37
2018-09-19T15:54:57.409Z,4.83
2018-09-19T15:57:29.081Z,5.90
2018-09-19T16:00:00.391Z,6.70
2018-09-19T16:02:31.683Z,9.10
2018-09-19T16:05:02.998Z,6.70
2018-09-19T16:07:34.687Z,6.08
2018-09-19T16:10:06.082Z,5.67
2018-09-19T16:12:37.409Z,7.60
2018-09-19T16:15:08.759Z,9.00
2018-09-19T16:17:40.038Z,7.17
2018-09-19T16:20:11.410Z,5.05
2018-09-19T16:22:42.974Z,5.83
2018-09-19T16:25:14.281Z,6.28
2018-09-19T16:27:45.637Z,5.55
2018-09-19T16:30:17.000Z,6.47
2018-09-19T16:32:54.045Z,5.83
2018-09-19T16:35:25.310Z,7.65
2018-09-19T16:37:57.239Z,7.70
2018-09-19T16:40:28.694Z,6.42
2018-09-19T16:42:59.965Z,9.83
2018-09-19T16:45:31.394Z,8.95
2018-09-19T16:48:02.658Z,6.30
2018-09-19T16:50:33.962Z,7.12
2018-09-19T16:53:05.296Z,9.38
2018-09-19T16:55:36.611Z,7.10
2018-09-19T16:58:07.873Z,6.00
2018-09-19T17:00:39.201Z,13.25
2018-09-19T17:03:10.469Z,9.43
2018-09-19T17:05:41.805Z,6.15
2018-09-19T17:08:13.290Z,7.25
2018-09-19T17:10:44.702Z,6.87
2018-09-19T17:13:15.999Z,8.97
2018-09-19T17:15:47.488Z,7.93
2018-09-19T17:18:18.747Z,7.17
2018-09-19T17:20:50.054Z,5.23
2018-09-19T17:23:21.274Z,6.23
2018-09-19T17:25:52.600Z,6.97
2018-09-19T17:28:23.933Z,5.27
2018-09-19T17:30:55.288Z,13.20
2018-09-19T17:33:26.525Z,9.67
2018-09-19T17:35:57.782Z,5.83
2018-09-19T17:38:29.069Z,10.27
2018-09-19T17:41:00.406Z,6.33
2018-09-19T17:43:31.680Z,7.17
2018-09-19T17:46:03.014Z,7.63
2018-09-19T17:48:34.358Z,10.90
2018-09-19T17:51:05.667Z,8.03
2018-09-19T17:53:36.919Z,12.30
2018-09-19T17:56:08.253Z,11.03
2018-09-19T17:58:39.552Z,6.03
2018-09-19T18:01:10.853Z,7.67
2018-09-19T18:03:42.174Z,9.50
2018-09-19T18:06:13.492Z,6.97
2018-09-19T18:08:44.801Z,5.93
2018-09-19T18:11:16.137Z,10.83
2018-09-19T18:13:47.430Z,9.97
2018-09-19T18:16:20.623Z,5.03
2018-09-19T18:18:51.949Z,7.20
2018-09-19T18:21:23.243Z,7.20
2018-09-19T18:23:54.858Z,8.67
2018-09-19T18:26:26.157Z,8.47
2018-09-19T18:28:57.422Z,6.17
2018-09-19T18:31:28.765Z,5.87
2018-09-19T18:34:00.153Z,5.93
2018-09-19T18:36:31.739Z,11.43
2018-09-19T18:39:03.102Z,7.20
2018-09-19T18:41:34.431Z,7.40
2018-09-19T18:44:05.705Z,9.03
2018-09-19T18:46:37.026Z,7.83
2018-09-19T18:49:08.335Z,6.20
2018-09-19T18:51:39.675Z,5.77
2018-09-19T18:54:10.949Z,6.63
2018-09-19T18:56:42.286Z,6.67
2018-09-19T18:59:13.579Z,7.33
2018-09-19T19:01:45.482Z,6.37
2018-09-19T19:04:17.268Z,6.30
2018-09-19T19:06:49.090Z,8.93
2018-09-19T19:09:20.636Z,8.83
2018-09-19T19:11:51.963Z,6.20
2018-09-19T19:14:23.313Z,9.90
2018-09-19T19:16:57.050Z,8.30
2018-09-19T19:19:28.727Z,7.50
2018-09-19T19:22:00.044Z,9.10
2018-09-19T19:24:32.180Z,10.67
2018-09-19T19:27:08.001Z,7.97
2018-09-19T19:29:53.631Z,9.03
2018-09-19T19:32:41.419Z,12.03
2018-09-19T19:35:14.221Z,9.37
2018-09-19T19:37:51.716Z,9.03
2018-09-19T19:40:24.925Z,7.87
2018-09-19T19:42:58.582Z,14.57
2018-09-19T19:45:31.695Z,11.80
2018-09-19T19:48:06.980Z,8.47
2018-09-19T19:50:47.238Z,9.80
2018-09-19T19:53:21.553Z,7.47
2018-09-19T19:55:54.197Z,7.70
2018-09-19T19:58:26.751Z,8.50
2018-09-19T20:00:58.653Z,11.30
2018-09-19T20:03:31.246Z,9.40
2018-09-19T20:06:05.355Z,10.77
2018-09-19T20:08:37.196Z,11.77
2018-09-19T20:11:09.359Z,9.40
2018-09-19T20:13:41.194Z,8.80
2018-09-19T20:16:12.924Z,7.10
2018-09-19T20:18:44.660Z,8.87
2018-09-19T20:21:16.319Z,7.70
2018-09-19T20:23:48.014Z,10.17
2018-09-19T20:26:20.899Z,7.10
2018-09-19T20:28:52.700Z,10.03
2018-09-19T20:31:24.621Z,10.97
2018-09-19T20:33:57.811Z,10.47
2018-09-19T20:36:30.286Z,9.37
2018-09-19T20:39:05.119Z,8.47
2018-09-19T20:41:37.909Z,10.70
2018-09-19T20:44:10.259Z,12.40
2018-09-19T20:46:43.016Z,8.23
2018-09-19T20:49:14.774Z,7.17
2018-09-19T20:51:46.664Z,9.40
2018-09-19T20:54:18.430Z,9.17
2018-09-19T20:56:50.142Z,11.10
2018-09-19T20:59:23.288Z,18.10
2018-09-19T21:01:58.103Z,12.23
2018-09-19T21:04:32.165Z,10.90
2018-09-19T21:07:07.030Z,11.17
2018-09-19T21:09:40.195Z,9.97
2018-09-19T21:12:16.005Z,9.93
2018-09-19T21:14:51.485Z,12.57
2018-09-19T21:17:25.456Z,11.53
2018-09-19T21:20:00.209Z,14.20
2018-09-19T21:22:35.401Z,9.60
2018-09-19T21:25:08.697Z,12.60
2018-09-19T21:27:42.299Z,14.43
2018-09-19T21:30:15.443Z,13.87
2018-09-19T21:32:48.501Z,15.23
2018-09-19T21:35:21.511Z,15.17
2018-09-19T21:37:54.607Z,15.97
2018-09-19T21:40:27.843Z,17.60
2018-09-19T21:43:00.870Z,17.10
2018-09-19T21:45:33.913Z,22.33
2018-09-19T21:48:06.974Z,19.43
2018-09-19T21:50:39.923Z,18.27
2018-09-19T21:53:12.917Z,19.13
2018-09-19T21:55:45.958Z,22.20
2018-09-19T21:58:19.094Z,23.93
2018-09-19T22:00:56.940Z,22.00
2018-09-19T22:03:29.895Z,25.63
2018-09-19T22:06:02.967Z,23.73
2018-09-19T22:08:36.561Z,27.27
2018-09-19T22:11:10.100Z,23.90
2018-09-19T22:13:43.009Z,28.13
2018-09-19T22:16:15.825Z,23.07
2018-09-19T22:18:48.868Z,24.23
2018-09-19T22:21:22.429Z,24.53
2018-09-19T22:23:55.366Z,24.27
2018-09-19T22:26:28.573Z,23.90
2018-09-19T22:29:01.632Z,22.13
2018-09-19T22:31:40.043Z,24.77
2018-09-19T22:34:16.443Z,31.37
2018-09-19T22:36:49.908Z,24.43
2018-09-19T22:39:23.078Z,21.97
2018-09-19T22:41:56.039Z,25.30
2018-09-19T22:44:29.110Z,24.37
2018-09-19T22:47:02.189Z,27.10
2018-09-19T22:49:35.219Z,26.23
2018-09-19T22:52:08.315Z,25.33
2018-09-19T22:54:41.353Z,25.83
2018-09-19T22:57:14.423Z,23.90
2018-09-19T22:59:47.458Z,25.50
2018-09-19T23:02:20.588Z,28.47
2018-09-19T23:04:53.606Z,25.20
2018-09-19T23:07:26.580Z,24.43
2018-09-19T23:09:59.721Z,24.97
2018-09-19T23:12:32.721Z,23.90
2018-09-19T23:15:05.996Z,22.40
2018-09-19T23:17:39.029Z,25.80
2018-09-19T23:20:12.396Z,26.53
2018-09-19T23:22:44.901Z,21.03
2018-09-19T23:25:17.449Z,18.73
2018-09-19T23:27:50.049Z,23.43
2018-09-19T23:30:22.646Z,22.07
2018-09-19T23:32:55.223Z,20.20
2018-09-19T23:35:27.738Z,19.33
2018-09-19T23:38:00.263Z,19.43
2018-09-19T23:40:32.772Z,15.10
2018-09-19T23:43:05.386Z,19.27
2018-09-19T23:45:38.003Z,17.57
2018-09-19T23:48:10.627Z,19.03
2018-09-19T23:50:43.478Z,20.33
2018-09-19T23:53:16.014Z,15.73
2018-09-19T23:55:48.695Z,16.87
2018-09-19T23:58:21.316Z,15.77
